地図

経路データ

SID SEASON NUMBER BASIN SUBBASIN NAME ISO_TIME NATURE LAT LON WMO_WIND WMO_PRES WMO_AGENCY TRACK_TYPE DIST2LAND LANDFALL IFLAG USA_AGENCY USA_ATCF_ID USA_LAT USA_LON USA_RECORD USA_STATUS USA_WIND USA_PRES USA_SSHS USA_R34_NE USA_R34_SE USA_R34_SW USA_R34_NW USA_R50_NE USA_R50_SE USA_R50_SW USA_R50_NW USA_R64_NE USA_R64_SE USA_R64_SW USA_R64_NW USA_POCI USA_ROCI USA_RMW USA_EYE TOKYO_LAT TOKYO_LON TOKYO_GRADE TOKYO_WIND TOKYO_PRES TOKYO_R50_DIR TOKYO_R50_LONG TOKYO_R50_SHORT TOKYO_R30_DIR TOKYO_R30_LONG TOKYO_R30_SHORT TOKYO_LAND CMA_LAT CMA_LON CMA_CAT CMA_WIND CMA_PRES HKO_LAT HKO_LON HKO_CAT HKO_WIND HKO_PRES NEWDELHI_LAT NEWDELHI_LON NEWDELHI_GRADE NEWDELHI_WIND NEWDELHI_PRES NEWDELHI_CI NEWDELHI_DP NEWDELHI_POCI REUNION_LAT REUNION_LON REUNION_TYPE REUNION_WIND REUNION_PRES REUNION_TNUM REUNION_CI REUNION_RMW REUNION_R34_NE REUNION_R34_SE REUNION_R34_SW REUNION_R34_NW REUNION_R50_NE REUNION_R50_SE REUNION_R50_SW REUNION_R50_NW REUNION_R64_NE REUNION_R64_SE REUNION_R64_SW REUNION_R64_NW BOM_LAT BOM_LON BOM_TYPE BOM_WIND BOM_PRES BOM_TNUM BOM_CI BOM_RMW BOM_R34_NE BOM_R34_SE BOM_R34_SW BOM_R34_NW BOM_R50_NE BOM_R50_SE BOM_R50_SW BOM_R50_NW BOM_R64_NE BOM_R64_SE BOM_R64_SW BOM_R64_NW BOM_ROCI BOM_POCI BOM_EYE BOM_POS_METHOD BOM_PRES_METHOD NADI_LAT NADI_LON NADI_CAT NADI_WIND NADI_PRES WELLINGTON_LAT WELLINGTON_LON WELLINGTON_WIND WELLINGTON_PRES DS824_LAT DS824_LON DS824_STAGE DS824_WIND DS824_PRES TD9636_LAT TD9636_LON TD9636_STAGE TD9636_WIND TD9636_PRES TD9635_LAT TD9635_LON TD9635_WIND TD9635_PRES TD9635_ROCI NEUMANN_LAT NEUMANN_LON NEUMANN_CLASS NEUMANN_WIND NEUMANN_PRES MLC_LAT MLC_LON MLC_CLASS MLC_WIND MLC_PRES USA_GUST BOM_GUST BOM_GUST_PER REUNION_GUST REUNION_GUST_PER USA_SEAHGT USA_SEARAD_NE USA_SEARAD_SE USA_SEARAD_SW USA_SEARAD_NW STORM_SPEED STORM_DIR
1956021S21164 1956 9 SP MM NOT_NAMED 1956-01-21 00:00:00 TS -21.1000 164.000 spur-merge 53 45 O________OO___ jtwc_sh SH141956 -21.1000 164.000 -1 -21.1000 164.000 TC -21.1000 164.000 2 8 127
1956021S21164 1956 9 SP MM NOT_NAMED 1956-01-21 02:00:00 TS -21.2651 164.241 spur-merge 56 47 P________PP___ SH141956 -21.2589 164.243 -1 -21.2589 164.243 TC -21.2775 164.238 2 8 126
1956021S21164 1956 9 SP MM NOT_NAMED 1956-01-21 03:00:00 TS -21.3489 164.360 spur-merge 38 32 P________PP___ SH141956 -21.3402 164.362 -1 -21.3402 164.362 TC -21.3665 164.355 2 8 128
1956021S21164 1956 9 SP MM NOT_NAMED 1956-01-21 05:00:00 TS -21.5218 164.588 spur-merge 32 30 P________PP___ SH141956 -21.5099 164.592 -1 -21.5099 164.592 TC -21.5456 164.581 2 8 130
1956021S21164 1956 9 SP MM NOT_NAMED 1956-01-21 06:00:00 TS -21.6120 164.696 spur-merge 30 30 O________OP___ jtwc_sh SH141956 -21.6000 164.700 -1 -21.6000 164.700 TC -21.6360 164.689 2 8 136
1956021S21164 1956 9 SP MM NOT_NAMED 1956-01-21 09:00:00 TS -21.8991 164.984 spur-merge 45 45 P________PP___ SH141956 -21.8925 164.988 -1 -21.8925 164.988 TC -21.9125 164.978 2 8 140
1956021S21164 1956 9 SP MM NOT_NAMED 1956-01-21 11:00:00 TS -22.0991 165.138 spur-merge 59 54 P________PP___ SH141956 -22.0974 165.139 -1 -22.0974 165.139 TC -22.1027 165.135 2 7 146
1956021S21164 1956 9 SP MM NOT_NAMED 1956-01-21 12:00:00 TS -22.2000 165.200 spur-merge 63 63 O________OO___ jtwc_sh SH141956 -22.2000 165.200 -1 -22.2000 165.200 TC -22.2000 165.200 2 7 155
1956021S21164 1956 9 SP MM NOT_NAMED 1956-01-21 15:00:00 TS -22.5001 165.342 spur-merge 84 78 P________PP___ SH141956 -22.4999 165.345 -1 -22.4999 165.345 TC -22.5005 165.337 2 6 163
1956021S21164 1956 9 SP MM NOT_NAMED 1956-01-21 18:00:00 TS -22.8023 165.398 spur-merge 106 106 O________OP___ jtwc_sh SH141956 -22.8000 165.400 -1 -22.8000 165.400 TC -22.8070 165.393 2 6 177
1956021S21164 1956 9 SP MM NOT_NAMED 1956-01-21 21:00:00 TS -23.1033 165.384 spur-merge 132 132 P________PP___ SH141956 -23.1000 165.388 -1 -23.1000 165.388 TC -23.1100 165.377 2 6 186
1956021S21164 1956 9 SP MM NOT_NAMED 1956-01-21 23:00:00 TS -23.3018 165.335 spur-merge 157 157 P________PP___ SH141956 -23.3000 165.336 -1 -23.3000 165.336 TC -23.3054 165.332 2 6 195
1956021S21164 1956 9 SP MM NOT_NAMED 1956-01-22 00:00:00 TS -23.4000 165.300 spur-merge 166 166 O________OO___ jtwc_sh SH141956 -23.4000 165.300 -1 -23.4000 165.300 TC -23.4000 165.300 2 6 199
1956021S21164 1956 9 SP MM NOT_NAMED 1956-01-22 03:00:00 TS -23.7062 165.181 spur-merge 198 198 P________PP___ SH141956 -23.7150 165.173 -1 -23.7150 165.173 TC -23.6887 165.199 2 7 203
1956021S21164 1956 9 SP MM NOT_NAMED 1956-01-22 05:00:00 TS -23.8983 165.074 spur-merge 222 222 P________PP___ SH141956 -23.9114 165.061 -1 -23.9114 165.061 TC -23.8722 165.099 2 6 208
1956021S21164 1956 9 SP MM NOT_NAMED 1956-01-22 06:00:00 TS -23.9866 165.014 spur-merge 237 237 O________OP___ jtwc_sh SH141956 -24.0000 165.000 -1 -24.0000 165.000 TC -23.9599 165.041 2 6 216
1956021S21164 1956 9 SP MM NOT_NAMED 1956-01-22 09:00:00 TS -24.2204 164.822 spur-merge 267 267 P________PP___ SH141956 -24.2300 164.815 -1 -24.2300 164.815 TC -24.2011 164.837 2 6 221
1956021S21164 1956 9 SP MM NOT_NAMED 1956-01-22 11:00:00 TS -24.3464 164.677 spur-merge 282 291 P________PP___ SH141956 -24.3500 164.675 -1 -24.3500 164.675 TC -24.3392 164.682 2 5 229
1956021S21164 1956 9 SP MM NOT_NAMED 1956-01-22 12:00:00 TS -24.4000 164.600 spur-merge 298 298 O________OO___ jtwc_sh SH141956 -24.4000 164.600 -1 -24.4000 164.600 TC -24.4000 164.600 2 5 238
1956021S21164 1956 9 SP MM NOT_NAMED 1956-01-22 15:00:00 TS -24.5229 164.366 spur-merge 319 319 P________PP___ SH141956 -24.5150 164.365 -1 -24.5150 164.365 TC -24.5389 164.369 2 5 244
1956021S21164 1956 9 SP MM NOT_NAMED 1956-01-22 17:00:00 TS -24.5838 164.194 spur-merge 340 340 P________PP___ SH141956 -24.5719 164.192 -1 -24.5719 164.192 TC -24.6076 164.199 2 5 250
1956021S21164 1956 9 SP MM NOT_NAMED 1956-01-22 18:00:00 TS -24.6124 164.103 spur-merge 346 346 O________OP___ jtwc_sh SH141956 -24.6000 164.100 -1 -24.6000 164.100 TC -24.6372 164.109 2 5 250
1956021S21164 1956 9 SP MM NOT_NAMED 1956-01-22 21:00:00 TS -24.7056 163.816 spur-merge 373 373 P________PP___ SH141956 -24.6999 163.815 -1 -24.6999 163.815 TC -24.7169 163.819 2 6 251
1956021S21164 1956 9 SP MM NOT_NAMED 1956-01-22 23:00:00 TS -24.7679 163.609 spur-merge 394 394 P________PP___ SH141956 -24.7666 163.608 -1 -24.7666 163.608 TC -24.7706 163.610 2 6 252
1956021S21164 1956 9 SP MM NOT_NAMED 1956-01-23 00:00:00 TS -24.8000 163.500 spur-merge 400 400 O________OO___ jtwc_sh SH141956 -24.8000 163.500 -1 -24.8000 163.500 TC -24.8000 163.500 2 6 253
1956021S21164 1956 9 SP MM NOT_NAMED 1956-01-23 03:00:00 TS -24.8941 163.160 spur-merge 426 426 P________PP___ SH141956 -24.8924 163.165 -1 -24.8924 163.165 TC -24.8976 163.149 2 7 253
1956021S21164 1956 9 SP MM NOT_NAMED 1956-01-23 05:00:00 TS -24.9631 162.917 spur-merge 451 451 P________PP___ SH141956 -24.9609 162.925 -1 -24.9609 162.925 TC -24.9674 162.900 2 7 252
1956021S21164 1956 9 SP MM NOT_NAMED 1956-01-23 06:00:00 TS -25.0017 162.791 spur-merge 455 455 O________OP___ jtwc_sh SH141956 -25.0000 162.800 -1 -25.0000 162.800 TC -25.0052 162.772 2 8 251
1956021S21164 1956 9 SP MM NOT_NAMED 1956-01-23 09:00:00 TS -25.1300 162.394 spur-merge 485 485 P________PP___ SH141956 -25.1275 162.400 -1 -25.1275 162.400 TC -25.1351 162.383 2 8 248
1956021S21164 1956 9 SP MM NOT_NAMED 1956-01-23 11:00:00 TS -25.2374 162.129 spur-merge 511 511 P________PP___ SH141956 -25.2360 162.130 -1 -25.2360 162.130 TC -25.2404 162.126 2 8 244
1956021S21164 1956 9 SP MM NOT_NAMED 1956-01-23 12:00:00 TS -25.3000 162.000 spur-merge 526 526 O________OO___ jtwc_sh SH141956 -25.3000 162.000 -1 -25.3000 162.000 TC -25.3000 162.000 2 8 238
1956021S21164 1956 9 SP MM NOT_NAMED 1956-01-23 15:00:00 TS -25.5267 161.619 spur-merge 568 568 P________PP___ SH141956 -25.5349 161.642 -1 -25.5349 161.642 TC -25.5104 161.571 2 8 234
1956021S21164 1956 9 SP MM NOT_NAMED 1956-01-23 18:00:00 TS -25.7852 161.253 spur-merge 613 613 O________OP___ jtwc_sh SH141956 -25.8000 161.300 -1 -25.8000 161.300 TC -25.7556 161.159 2 8 232
1956021S21164 1956 9 SP MM NOT_NAMED 1956-01-23 21:00:00 TS -26.0411 160.876 spur-merge 655 655 P________PP___ SH141956 -26.0501 160.905 -1 -26.0501 160.905 TC -26.0229 160.818 2 8 231
1956021S21164 1956 9 SP MM NOT_NAMED 1956-01-23 23:00:00 TS -26.2136 160.674 spur-merge 685 685 P________PP___ SH141956 -26.2167 160.683 -1 -26.2167 160.683 TC -26.2073 160.656 2 7 224
1956021S21164 1956 9 SP MM NOT_NAMED 1956-01-24 00:00:00 TS -26.3000 160.600 spur-merge 700 700 O________OO___ jtwc_sh SH141956 -26.3000 160.600 -1 -26.3000 160.600 TC -26.3000 160.600 2 6 206
1956021S21164 1956 9 SP MM NOT_NAMED 1956-01-24 03:00:00 TS -26.5546 160.487 spur-merge 703 697 P________PP___ SH141956 -26.5423 160.460 -1 -26.5423 160.460 TC -26.5793 160.541 2 5 187
1956021S21164 1956 9 SP MM NOT_NAMED 1956-01-24 06:00:00 TS -26.8214 160.537 spur-merge 697 697 O________OP___ jtwc_sh SH141956 -26.8000 160.500 -1 -26.8000 160.500 TC -26.8642 160.611 2 6 159
1956021S21164 1956 9 SP MM NOT_NAMED 1956-01-24 09:00:00 TS -27.1141 160.728 spur-merge 709 709 P________PP___ SH141956 -27.1001 160.705 -1 -27.1001 160.705 TC -27.1420 160.776 2 7 146
1956021S21164 1956 9 SP MM NOT_NAMED 1956-01-24 11:00:00 TS -27.3077 160.908 spur-merge 724 724 P________PP___ SH141956 -27.3031 160.901 -1 -27.3031 160.901 TC -27.3170 160.921 2 8 140
1956021S21164 1956 9 SP MM NOT_NAMED 1956-01-24 12:00:00 TS -27.4000 161.000 spur-merge 732 732 O________OO___ jtwc_sh SH141956 -27.4000 161.000 -1 -27.4000 161.000 TC -27.4000 161.000 2 7 142
1956021S21164 1956 9 SP MM NOT_NAMED 1956-01-24 15:00:00 TS -27.6922 161.248 spur-merge 747 747 P________PP___ SH141956 -27.6724 161.243 -1 -27.6724 161.243 TC -27.7318 161.260 2 7 140
1956021S21164 1956 9 SP MM NOT_NAMED 1956-01-24 18:00:00 TS -27.9419 161.521 spur-merge 774 774 O________OP___ jtwc_sh SH141956 -27.9000 161.500 -1 -27.9000 161.500 TC -28.0258 161.563 2 7 133
1956021S21164 1956 9 SP MM NOT_NAMED 1956-01-24 21:00:00 TS -28.1673 161.830 spur-merge 802 793 P________PP___ SH141956 -28.1476 161.815 -1 -28.1476 161.815 TC -28.2068 161.860 2 6 122
1956021S21164 1956 9 SP MM NOT_NAMED 1956-01-24 23:00:00 TS -28.2213 162.019 spur-merge 793 788 P________PP___ SH141956 -28.2181 162.014 -1 -28.2181 162.014 TC -28.2277 162.029 2 5 98
1956021S21164 1956 9 SP MM NOT_NAMED 1956-01-25 00:00:00 TS -28.2000 162.100 spur-merge 788 749 O________OO___ jtwc_sh SH141956 -28.2000 162.100 -1 -28.2000 162.100 TC -28.2000 162.100 2 6 38
1956021S21164 1956 9 SP MM NOT_NAMED 1956-01-25 03:00:00 TS -27.9012 162.303 spur-merge 749 698 P________PP___ SH141956 -27.9049 162.303 -1 -27.9049 162.303 TC -27.8939 162.303 2 8 19
1956021S21164 1956 9 SP MM NOT_NAMED 1956-01-25 06:00:00 TS -27.4020 162.410 spur-merge 698 653 O________OP___ jtwc_sh SH141956 -27.4000 162.400 -1 -27.4000 162.400 TC -27.4061 162.429 2 11 6
1956021S21164 1956 9 SP MM NOT_NAMED 1956-01-25 09:00:00 TS -26.8417 162.425 spur-merge 644 618 P________PP___ SH141956 -26.8424 162.418 -1 -26.8424 162.418 TC -26.8403 162.440 2 11 357
1956021S21164 1956 9 SP MM NOT_NAMED 1956-01-25 11:00:00 TS -26.4692 162.359 spur-merge 618 606 P________PP___ SH141956 -26.4683 162.356 -1 -26.4683 162.356 TC -26.4709 162.366 2 11 349
1956021S21164 1956 9 SP MM NOT_NAMED 1956-01-25 12:00:00 TS -26.3000 162.300 spur-merge 606 578 O________OO___ jtwc_sh SH141956 -26.3000 162.300 -1 -26.3000 162.300 TC -26.3000 162.300 2 10 335
1956021S21164 1956 9 SP MM NOT_NAMED 1956-01-25 15:00:00 TS -25.8965 162.056 spur-merge 578 565 P________PP___ SH141956 -25.9121 162.090 -1 -25.9121 162.090 TC -25.8653 161.987 2 9 321
1956021S21164 1956 9 SP MM NOT_NAMED 1956-01-25 18:00:00 TS -25.5752 161.645 spur-merge 577 568 O________OP___ jtwc_sh SH141956 -25.6000 161.700 -1 -25.6000 161.700 TC -25.5257 161.534 2 11 305
1956021S21164 1956 9 SP MM NOT_NAMED 1956-01-25 21:00:00 TS -25.2833 161.068 spur-merge 583 582 P________PP___ SH141956 -25.3010 161.107 -1 -25.3010 161.107 TC -25.2481 160.989 2 12 298
1956021S21164 1956 9 SP MM NOT_NAMED 1956-01-25 23:00:00 TS -25.0942 160.627 spur-merge 603 603 P________PP___ SH141956 -25.1007 160.641 -1 -25.1007 160.641 TC -25.0814 160.599 2 13 295
1956021S21164 1956 9 SP MM NOT_NAMED 1956-01-26 00:00:00 TS -25.0000 160.400 spur-merge 610 O________OO___ jtwc_sh SH141956 -25.0000 160.400 -1 -25.0000 160.400 TC -25.0000 160.400 2 14 294

デジタル台風データ・検索

IBTrACS Databaseについて

本データベースは、米国NOAAが公開する1842年以降の世界の熱帯低気圧のベストトラックデータアーカイブInternational Best Track Archive for Climate Stewardship (IBTrACS)を、ウェブで閲覧しやすい形式に変換したものです。

最終更新日:2021-12-06